sensor_id;sensor_type;location;lat;lon;timestamp;P1;durP1;ratioP1;P2;durP2;ratioP2
10041;SDS011;5061;49.068;12.058;2022-12-18T00:02:34;50.73;;;20.00;;
10041;SDS011;5061;49.068;12.058;2022-12-18T00:05:55;50.20;;;19.53;;
10041;SDS011;5061;49.068;12.058;2022-12-18T00:09:15;39.90;;;17.93;;
10041;SDS011;5061;49.068;12.058;2022-12-18T00:12:36;48.13;;;18.80;;
10041;SDS011;5061;49.068;12.058;2022-12-18T00:16:01;47.73;;;19.40;;
10041;SDS011;5061;49.068;12.058;2022-12-18T00:19:22;38.93;;;17.83;;
10041;SDS011;5061;49.068;12.058;2022-12-18T00:22:46;44.30;;;18.37;;
10041;SDS011;5061;49.068;12.058;2022-12-18T00:26:08;49.20;;;18.20;;
10041;SDS011;5061;49.068;12.058;2022-12-18T00:29:31;47.87;;;18.37;;
10041;SDS011;5061;49.068;12.058;2022-12-18T00:32:52;37.73;;;15.60;;
10041;SDS011;5061;49.068;12.058;2022-12-18T00:36:14;36.77;;;15.47;;
10041;SDS011;5061;49.068;12.058;2022-12-18T00:39:37;30.73;;;12.50;;
10041;SDS011;5061;49.068;12.058;2022-12-18T00:42:57;35.70;;;13.43;;
10041;SDS011;5061;49.068;12.058;2022-12-18T00:46:18;29.13;;;13.10;;
10041;SDS011;5061;49.068;12.058;2022-12-18T00:49:39;32.40;;;12.53;;
10041;SDS011;5061;49.068;12.058;2022-12-18T00:52:59;33.77;;;13.03;;
10041;SDS011;5061;49.068;12.058;2022-12-18T00:56:20;29.87;;;11.73;;
10041;SDS011;5061;49.068;12.058;2022-12-18T00:59:40;29.03;;;11.83;;
10041;SDS011;5061;49.068;12.058;2022-12-18T01:03:01;33.53;;;12.27;;
10041;SDS011;5061;49.068;12.058;2022-12-18T01:06:28;36.00;;;13.47;;
10041;SDS011;5061;49.068;12.058;2022-12-18T01:09:49;23.17;;;9.97;;
10041;SDS011;5061;49.068;12.058;2022-12-18T01:13:10;25.77;;;10.83;;
10041;SDS011;5061;49.068;12.058;2022-12-18T01:16:31;26.90;;;11.80;;
10041;SDS011;5061;49.068;12.058;2022-12-18T01:19:51;28.13;;;10.93;;
10041;SDS011;5061;49.068;12.058;2022-12-18T01:23:12;24.63;;;10.53;;
10041;SDS011;5061;49.068;12.058;2022-12-18T01:26:32;26.40;;;10.33;;
10041;SDS011;5061;49.068;12.058;2022-12-18T01:29:53;29.20;;;12.60;;
10041;SDS011;5061;49.068;12.058;2022-12-18T01:33:14;30.63;;;12.00;;
10041;SDS011;5061;49.068;12.058;2022-12-18T01:36:35;33.80;;;13.60;;
10041;SDS011;5061;49.068;12.058;2022-12-18T01:39:59;38.83;;;13.97;;
10041;SDS011;5061;49.068;12.058;2022-12-18T01:43:20;30.23;;;12.10;;
10041;SDS011;5061;49.068;12.058;2022-12-18T01:46:41;23.93;;;10.37;;
10041;SDS011;5061;49.068;12.058;2022-12-18T01:50:05;22.13;;;10.03;;
10041;SDS011;5061;49.068;12.058;2022-12-18T01:53:36;27.50;;;11.03;;
10041;SDS011;5061;49.068;12.058;2022-12-18T01:56:57;23.50;;;10.07;;
10041;SDS011;5061;49.068;12.058;2022-12-18T02:00:18;23.57;;;10.60;;
10041;SDS011;5061;49.068;12.058;2022-12-18T02:03:41;33.30;;;13.13;;
10041;SDS011;5061;49.068;12.058;2022-12-18T02:17:58;27.50;;;12.00;;
10041;SDS011;5061;49.068;12.058;2022-12-18T02:28:49;36.10;;;13.57;;
10041;SDS011;5061;49.068;12.058;2022-12-18T02:32:18;41.33;;;15.63;;
10041;SDS011;5061;49.068;12.058;2022-12-18T02:35:49;38.20;;;15.03;;
10041;SDS011;5061;49.068;12.058;2022-12-18T02:39:12;43.37;;;15.80;;
10041;SDS011;5061;49.068;12.058;2022-12-18T02:42:35;34.30;;;14.03;;
10041;SDS011;5061;49.068;12.058;2022-12-18T02:45:56;39.17;;;15.57;;
10041;SDS011;5061;49.068;12.058;2022-12-18T02:52:55;35.47;;;14.03;;
10041;SDS011;5061;49.068;12.058;2022-12-18T02:56:21;42.50;;;16.20;;
10041;SDS011;5061;49.068;12.058;2022-12-18T02:59:56;41.33;;;15.20;;
10041;SDS011;5061;49.068;12.058;2022-12-18T03:03:24;25.03;;;10.30;;
10041;SDS011;5061;49.068;12.058;2022-12-18T03:06:52;25.97;;;11.70;;
10041;SDS011;5061;49.068;12.058;2022-12-18T03:10:21;38.43;;;14.50;;
10041;SDS011;5061;49.068;12.058;2022-12-18T03:13:47;42.70;;;13.83;;
10041;SDS011;5061;49.068;12.058;2022-12-18T03:17:13;37.00;;;14.53;;
10041;SDS011;5061;49.068;12.058;2022-12-18T03:20:37;36.17;;;13.43;;
10041;SDS011;5061;49.068;12.058;2022-12-18T03:24:01;29.73;;;13.33;;
10041;SDS011;5061;49.068;12.058;2022-12-18T03:27:25;33.43;;;14.07;;
10041;SDS011;5061;49.068;12.058;2022-12-18T03:30:47;33.33;;;13.30;;
10041;SDS011;5061;49.068;12.058;2022-12-18T03:34:15;39.40;;;15.23;;
10041;SDS011;5061;49.068;12.058;2022-12-18T03:37:41;33.47;;;14.47;;
10041;SDS011;5061;49.068;12.058;2022-12-18T03:41:15;30.87;;;12.47;;
10041;SDS011;5061;49.068;12.058;2022-12-18T03:51:54;31.93;;;13.00;;
10041;SDS011;5061;49.068;12.058;2022-12-18T03:55:21;29.80;;;12.10;;
10041;SDS011;5061;49.068;12.058;2022-12-18T03:58:42;36.03;;;12.67;;
10041;SDS011;5061;49.068;12.058;2022-12-18T04:02:06;27.80;;;11.33;;
10041;SDS011;5061;49.068;12.058;2022-12-18T04:05:28;26.23;;;10.90;;
10041;SDS011;5061;49.068;12.058;2022-12-18T04:08:50;30.43;;;12.50;;
10041;SDS011;5061;49.068;12.058;2022-12-18T04:12:11;34.97;;;13.17;;
10041;SDS011;5061;49.068;12.058;2022-12-18T04:15:33;24.33;;;11.17;;
10041;SDS011;5061;49.068;12.058;2022-12-18T04:18:55;28.57;;;12.57;;
10041;SDS011;5061;49.068;12.058;2022-12-18T04:22:16;24.50;;;10.03;;
10041;SDS011;5061;49.068;12.058;2022-12-18T04:25:37;27.30;;;10.87;;
10041;SDS011;5061;49.068;12.058;2022-12-18T04:28:57;28.27;;;12.70;;
10041;SDS011;5061;49.068;12.058;2022-12-18T04:32:18;24.80;;;11.57;;
10041;SDS011;5061;49.068;12.058;2022-12-18T04:35:39;28.20;;;12.60;;
10041;SDS011;5061;49.068;12.058;2022-12-18T04:39:00;33.03;;;14.13;;
10041;SDS011;5061;49.068;12.058;2022-12-18T04:42:21;31.90;;;11.77;;
10041;SDS011;5061;49.068;12.058;2022-12-18T04:45:41;31.93;;;12.63;;
10041;SDS011;5061;49.068;12.058;2022-12-18T04:49:02;31.40;;;13.00;;
10041;SDS011;5061;49.068;12.058;2022-12-18T04:52:22;28.63;;;12.50;;
10041;SDS011;5061;49.068;12.058;2022-12-18T04:55:43;27.20;;;13.07;;
10041;SDS011;5061;49.068;12.058;2022-12-18T04:59:04;39.40;;;14.30;;
10041;SDS011;5061;49.068;12.058;2022-12-18T05:02:24;39.10;;;15.43;;
10041;SDS011;5061;49.068;12.058;2022-12-18T05:05:45;32.43;;;13.30;;
10041;SDS011;5061;49.068;12.058;2022-12-18T05:09:10;32.33;;;12.57;;
10041;SDS011;5061;49.068;12.058;2022-12-18T05:12:31;24.57;;;10.63;;
10041;SDS011;5061;49.068;12.058;2022-12-18T05:15:52;21.80;;;10.97;;
10041;SDS011;5061;49.068;12.058;2022-12-18T05:19:13;27.83;;;12.70;;
10041;SDS011;5061;49.068;12.058;2022-12-18T05:22:33;34.63;;;14.40;;
10041;SDS011;5061;49.068;12.058;2022-12-18T05:25:55;34.43;;;15.30;;
10041;SDS011;5061;49.068;12.058;2022-12-18T05:29:19;32.97;;;12.60;;
10041;SDS011;5061;49.068;12.058;2022-12-18T05:32:40;39.60;;;14.53;;
10041;SDS011;5061;49.068;12.058;2022-12-18T05:36:01;33.50;;;14.17;;
10041;SDS011;5061;49.068;12.058;2022-12-18T05:39:23;36.97;;;15.07;;
10041;SDS011;5061;49.068;12.058;2022-12-18T05:42:44;29.20;;;12.17;;
10041;SDS011;5061;49.068;12.058;2022-12-18T05:46:05;31.93;;;12.90;;
10041;SDS011;5061;49.068;12.058;2022-12-18T05:49:27;33.70;;;12.90;;
10041;SDS011;5061;49.068;12.058;2022-12-18T05:52:48;32.70;;;12.40;;
10041;SDS011;5061;49.068;12.058;2022-12-18T05:56:10;31.27;;;12.70;;
10041;SDS011;5061;49.068;12.058;2022-12-18T05:59:33;32.30;;;11.43;;
10041;SDS011;5061;49.068;12.058;2022-12-18T06:02:53;25.43;;;10.13;;
10041;SDS011;5061;49.068;12.058;2022-12-18T06:06:21;31.23;;;12.90;;
10041;SDS011;5061;49.068;12.058;2022-12-18T06:09:44;25.27;;;11.40;;
10041;SDS011;5061;49.068;12.058;2022-12-18T06:13:05;27.80;;;11.20;;
10041;SDS011;5061;49.068;12.058;2022-12-18T06:16:26;30.97;;;12.60;;
10041;SDS011;5061;49.068;12.058;2022-12-18T06:19:48;28.40;;;12.00;;
10041;SDS011;5061;49.068;12.058;2022-12-18T06:23:08;31.83;;;11.53;;
10041;SDS011;5061;49.068;12.058;2022-12-18T06:26:29;35.80;;;13.10;;
10041;SDS011;5061;49.068;12.058;2022-12-18T06:29:49;32.80;;;12.00;;
10041;SDS011;5061;49.068;12.058;2022-12-18T06:33:10;25.90;;;11.87;;
10041;SDS011;5061;49.068;12.058;2022-12-18T06:36:31;30.47;;;12.77;;
10041;SDS011;5061;49.068;12.058;2022-12-18T06:39:52;39.93;;;14.60;;
10041;SDS011;5061;49.068;12.058;2022-12-18T06:43:13;34.63;;;14.60;;
10041;SDS011;5061;49.068;12.058;2022-12-18T06:46:34;28.40;;;11.10;;
10041;SDS011;5061;49.068;12.058;2022-12-18T06:49:54;32.50;;;12.80;;
10041;SDS011;5061;49.068;12.058;2022-12-18T06:53:15;41.67;;;13.80;;
10041;SDS011;5061;49.068;12.058;2022-12-18T06:56:36;26.80;;;11.47;;
10041;SDS011;5061;49.068;12.058;2022-12-18T06:59:56;30.73;;;11.20;;
10041;SDS011;5061;49.068;12.058;2022-12-18T07:03:17;29.57;;;11.03;;
10041;SDS011;5061;49.068;12.058;2022-12-18T07:06:38;31.27;;;11.60;;
10041;SDS011;5061;49.068;12.058;2022-12-18T07:09:59;33.80;;;12.80;;
10041;SDS011;5061;49.068;12.058;2022-12-18T07:13:19;37.90;;;15.00;;
10041;SDS011;5061;49.068;12.058;2022-12-18T07:16:40;28.03;;;12.30;;
10041;SDS011;5061;49.068;12.058;2022-12-18T07:20:01;34.33;;;13.43;;
10041;SDS011;5061;49.068;12.058;2022-12-18T07:23:21;29.37;;;11.73;;
10041;SDS011;5061;49.068;12.058;2022-12-18T07:26:42;33.23;;;12.87;;
10041;SDS011;5061;49.068;12.058;2022-12-18T07:30:05;38.40;;;13.90;;
10041;SDS011;5061;49.068;12.058;2022-12-18T07:33:26;45.37;;;14.70;;
10041;SDS011;5061;49.068;12.058;2022-12-18T07:36:47;43.90;;;14.43;;
10041;SDS011;5061;49.068;12.058;2022-12-18T07:40:07;36.43;;;14.60;;
10041;SDS011;5061;49.068;12.058;2022-12-18T07:43:28;39.80;;;12.70;;
10041;SDS011;5061;49.068;12.058;2022-12-18T07:46:49;32.30;;;12.83;;
10041;SDS011;5061;49.068;12.058;2022-12-18T07:50:10;39.87;;;13.27;;
10041;SDS011;5061;49.068;12.058;2022-12-18T07:53:31;41.03;;;13.73;;
10041;SDS011;5061;49.068;12.058;2022-12-18T07:56:52;34.13;;;12.23;;
10041;SDS011;5061;49.068;12.058;2022-12-18T08:00:13;40.17;;;14.17;;
10041;SDS011;5061;49.068;12.058;2022-12-18T08:03:34;37.57;;;13.50;;
10041;SDS011;5061;49.068;12.058;2022-12-18T08:06:56;40.63;;;15.53;;
10041;SDS011;5061;49.068;12.058;2022-12-18T08:10:16;37.73;;;13.10;;
10041;SDS011;5061;49.068;12.058;2022-12-18T08:13:37;44.83;;;14.30;;
10041;SDS011;5061;49.068;12.058;2022-12-18T08:16:58;34.47;;;11.70;;
10041;SDS011;5061;49.068;12.058;2022-12-18T08:20:18;40.50;;;16.47;;
10041;SDS011;5061;49.068;12.058;2022-12-18T08:23:39;38.00;;;15.23;;
10041;SDS011;5061;49.068;12.058;2022-12-18T08:27:00;42.20;;;15.27;;
10041;SDS011;5061;49.068;12.058;2022-12-18T08:30:20;48.17;;;14.90;;
10041;SDS011;5061;49.068;12.058;2022-12-18T08:33:48;41.03;;;15.40;;
10041;SDS011;5061;49.068;12.058;2022-12-18T08:37:09;53.00;;;15.30;;
10041;SDS011;5061;49.068;12.058;2022-12-18T08:40:30;37.20;;;13.47;;
10041;SDS011;5061;49.068;12.058;2022-12-18T08:43:51;38.60;;;16.47;;
10041;SDS011;5061;49.068;12.058;2022-12-18T08:47:30;44.37;;;15.03;;
10041;SDS011;5061;49.068;12.058;2022-12-18T08:50:55;43.07;;;15.13;;
10041;SDS011;5061;49.068;12.058;2022-12-18T08:54:19;44.17;;;15.60;;
10041;SDS011;5061;49.068;12.058;2022-12-18T08:57:40;60.83;;;18.10;;
10041;SDS011;5061;49.068;12.058;2022-12-18T09:01:02;38.27;;;16.20;;
10041;SDS011;5061;49.068;12.058;2022-12-18T09:04:24;45.97;;;15.53;;
10041;SDS011;5061;49.068;12.058;2022-12-18T09:07:45;42.10;;;15.43;;
10041;SDS011;5061;49.068;12.058;2022-12-18T09:11:09;50.07;;;17.33;;
10041;SDS011;5061;49.068;12.058;2022-12-18T09:14:33;35.63;;;14.03;;
10041;SDS011;5061;49.068;12.058;2022-12-18T09:17:54;30.93;;;12.90;;
10041;SDS011;5061;49.068;12.058;2022-12-18T09:21:16;32.00;;;12.97;;
10041;SDS011;5061;49.068;12.058;2022-12-18T09:24:38;44.07;;;16.50;;
10041;SDS011;5061;49.068;12.058;2022-12-18T09:27:59;40.13;;;14.63;;
10041;SDS011;5061;49.068;12.058;2022-12-18T09:31:20;40.47;;;15.17;;
10041;SDS011;5061;49.068;12.058;2022-12-18T09:34:42;45.53;;;16.13;;
10041;SDS011;5061;49.068;12.058;2022-12-18T09:38:02;43.90;;;16.80;;
10041;SDS011;5061;49.068;12.058;2022-12-18T09:45:02;44.03;;;15.07;;
10041;SDS011;5061;49.068;12.058;2022-12-18T09:48:34;40.27;;;15.57;;
10041;SDS011;5061;49.068;12.058;2022-12-18T09:55:41;45.10;;;18.00;;
10041;SDS011;5061;49.068;12.058;2022-12-18T09:59:04;45.67;;;16.63;;
10041;SDS011;5061;49.068;12.058;2022-12-18T10:02:25;46.67;;;14.60;;
10041;SDS011;5061;49.068;12.058;2022-12-18T10:10:13;42.97;;;16.63;;
10041;SDS011;5061;49.068;12.058;2022-12-18T10:13:22;44.43;;;14.97;;
10041;SDS011;5061;49.068;12.058;2022-12-18T10:20:49;37.70;;;15.20;;
10041;SDS011;5061;49.068;12.058;2022-12-18T10:24:34;45.47;;;15.63;;
10041;SDS011;5061;49.068;12.058;2022-12-18T10:27:58;48.90;;;15.67;;
10041;SDS011;5061;49.068;12.058;2022-12-18T10:31:27;37.53;;;14.67;;
10041;SDS011;5061;49.068;12.058;2022-12-18T10:34:49;37.77;;;15.50;;
10041;SDS011;5061;49.068;12.058;2022-12-18T10:41:34;39.17;;;14.50;;
10041;SDS011;5061;49.068;12.058;2022-12-18T10:45:02;41.37;;;15.60;;
10041;SDS011;5061;49.068;12.058;2022-12-18T10:48:29;36.13;;;14.30;;
10041;SDS011;5061;49.068;12.058;2022-12-18T10:51:51;42.47;;;16.53;;
10041;SDS011;5061;49.068;12.058;2022-12-18T10:59:04;45.63;;;15.60;;
10041;SDS011;5061;49.068;12.058;2022-12-18T11:02:34;44.40;;;14.60;;
10041;SDS011;5061;49.068;12.058;2022-12-18T11:06:07;41.77;;;15.10;;
10041;SDS011;5061;49.068;12.058;2022-12-18T11:09:41;38.27;;;13.90;;
10041;SDS011;5061;49.068;12.058;2022-12-18T11:13:09;37.97;;;14.07;;
10041;SDS011;5061;49.068;12.058;2022-12-18T11:16:36;45.57;;;18.67;;
10041;SDS011;5061;49.068;12.058;2022-12-18T11:20:06;59.03;;;20.17;;
10041;SDS011;5061;49.068;12.058;2022-12-18T11:24:01;59.67;;;19.83;;
10041;SDS011;5061;49.068;12.058;2022-12-18T11:27:22;54.50;;;19.43;;
10041;SDS011;5061;49.068;12.058;2022-12-18T11:30:43;46.37;;;17.87;;
10041;SDS011;5061;49.068;12.058;2022-12-18T11:37:30;45.67;;;17.07;;
10041;SDS011;5061;49.068;12.058;2022-12-18T11:41:41;45.70;;;17.23;;
10041;SDS011;5061;49.068;12.058;2022-12-18T11:52:24;39.20;;;15.73;;
10041;SDS011;5061;49.068;12.058;2022-12-18T11:59:50;44.10;;;18.30;;
10041;SDS011;5061;49.068;12.058;2022-12-18T12:14:23;80.30;;;24.90;;
10041;SDS011;5061;49.068;12.058;2022-12-18T12:18:08;54.43;;;19.10;;
10041;SDS011;5061;49.068;12.058;2022-12-18T12:40:06;40.60;;;16.03;;
10041;SDS011;5061;49.068;12.058;2022-12-18T12:46:51;42.00;;;16.00;;
10041;SDS011;5061;49.068;12.058;2022-12-18T12:50:16;42.93;;;16.17;;
10041;SDS011;5061;49.068;12.058;2022-12-18T12:53:39;45.00;;;16.67;;
10041;SDS011;5061;49.068;12.058;2022-12-18T13:00:40;40.13;;;16.73;;
10041;SDS011;5061;49.068;12.058;2022-12-18T13:08:06;34.03;;;15.93;;
10041;SDS011;5061;49.068;12.058;2022-12-18T13:11:34;33.37;;;15.33;;
10041;SDS011;5061;49.068;12.058;2022-12-18T13:15:32;39.10;;;16.37;;
10041;SDS011;5061;49.068;12.058;2022-12-18T13:18:59;31.03;;;13.30;;
10041;SDS011;5061;49.068;12.058;2022-12-18T13:22:24;39.20;;;15.73;;
10041;SDS011;5061;49.068;12.058;2022-12-18T13:25:49;38.77;;;15.17;;
10041;SDS011;5061;49.068;12.058;2022-12-18T13:29:13;31.60;;;14.27;;
10041;SDS011;5061;49.068;12.058;2022-12-18T13:36:33;38.60;;;16.37;;
10041;SDS011;5061;49.068;12.058;2022-12-18T13:39:54;43.23;;;16.07;;
10041;SDS011;5061;49.068;12.058;2022-12-18T13:46:42;42.67;;;16.93;;
10041;SDS011;5061;49.068;12.058;2022-12-18T13:50:12;43.87;;;19.07;;
10041;SDS011;5061;49.068;12.058;2022-12-18T13:53:43;45.87;;;18.30;;
10041;SDS011;5061;49.068;12.058;2022-12-18T14:01:04;39.47;;;15.77;;
10041;SDS011;5061;49.068;12.058;2022-12-18T14:04:28;38.63;;;16.30;;
10041;SDS011;5061;49.068;12.058;2022-12-18T14:07:51;44.53;;;18.47;;
10041;SDS011;5061;49.068;12.058;2022-12-18T14:11:18;38.30;;;16.20;;
10041;SDS011;5061;49.068;12.058;2022-12-18T14:14:46;37.90;;;16.23;;
10041;SDS011;5061;49.068;12.058;2022-12-18T14:18:22;40.23;;;16.57;;
10041;SDS011;5061;49.068;12.058;2022-12-18T14:21:55;43.13;;;18.50;;
10041;SDS011;5061;49.068;12.058;2022-12-18T14:25:20;35.73;;;14.27;;
10041;SDS011;5061;49.068;12.058;2022-12-18T14:28:43;36.17;;;14.57;;
10041;SDS011;5061;49.068;12.058;2022-12-18T14:35:42;33.07;;;13.20;;
10041;SDS011;5061;49.068;12.058;2022-12-18T14:39:16;28.87;;;12.67;;
10041;SDS011;5061;49.068;12.058;2022-12-18T14:42:38;30.80;;;13.23;;
10041;SDS011;5061;49.068;12.058;2022-12-18T14:45:59;30.97;;;11.57;;
10041;SDS011;5061;49.068;12.058;2022-12-18T14:49:28;30.40;;;12.90;;
10041;SDS011;5061;49.068;12.058;2022-12-18T14:52:51;23.07;;;10.27;;
10041;SDS011;5061;49.068;12.058;2022-12-18T14:56:31;20.90;;;9.87;;
10041;SDS011;5061;49.068;12.058;2022-12-18T15:00:02;19.23;;;9.20;;
10041;SDS011;5061;49.068;12.058;2022-12-18T15:03:27;26.97;;;11.17;;
10041;SDS011;5061;49.068;12.058;2022-12-18T15:06:47;23.50;;;9.73;;
10041;SDS011;5061;49.068;12.058;2022-12-18T15:10:16;23.50;;;9.77;;
10041;SDS011;5061;49.068;12.058;2022-12-18T15:13:40;19.90;;;8.97;;
10041;SDS011;5061;49.068;12.058;2022-12-18T15:17:01;18.10;;;8.23;;
10041;SDS011;5061;49.068;12.058;2022-12-18T15:20:24;19.00;;;8.20;;
10041;SDS011;5061;49.068;12.058;2022-12-18T15:23:49;14.20;;;6.90;;
10041;SDS011;5061;49.068;12.058;2022-12-18T15:31:02;17.50;;;7.20;;
10041;SDS011;5061;49.068;12.058;2022-12-18T15:34:23;16.20;;;8.13;;
10041;SDS011;5061;49.068;12.058;2022-12-18T15:37:45;23.40;;;9.40;;
10041;SDS011;5061;49.068;12.058;2022-12-18T15:41:05;20.20;;;8.87;;
10041;SDS011;5061;49.068;12.058;2022-12-18T15:44:33;14.93;;;7.77;;
10041;SDS011;5061;49.068;12.058;2022-12-18T15:47:54;14.50;;;7.33;;
10041;SDS011;5061;49.068;12.058;2022-12-18T15:51:15;14.50;;;8.10;;
10041;SDS011;5061;49.068;12.058;2022-12-18T15:54:38;16.70;;;8.13;;
10041;SDS011;5061;49.068;12.058;2022-12-18T15:58:27;19.93;;;8.43;;
10041;SDS011;5061;49.068;12.058;2022-12-18T16:01:49;14.50;;;8.23;;
10041;SDS011;5061;49.068;12.058;2022-12-18T16:05:14;13.80;;;7.60;;
10041;SDS011;5061;49.068;12.058;2022-12-18T16:08:37;16.83;;;7.90;;
10041;SDS011;5061;49.068;12.058;2022-12-18T16:11:57;16.87;;;8.00;;
10041;SDS011;5061;49.068;12.058;2022-12-18T16:15:18;20.57;;;8.50;;
10041;SDS011;5061;49.068;12.058;2022-12-18T16:18:39;15.73;;;8.50;;
10041;SDS011;5061;49.068;12.058;2022-12-18T16:21:59;16.40;;;9.30;;
10041;SDS011;5061;49.068;12.058;2022-12-18T16:25:24;21.00;;;8.30;;
10041;SDS011;5061;49.068;12.058;2022-12-18T16:28:49;20.43;;;8.80;;
10041;SDS011;5061;49.068;12.058;2022-12-18T16:32:14;16.87;;;8.57;;
10041;SDS011;5061;49.068;12.058;2022-12-18T16:35:37;17.80;;;8.80;;
10041;SDS011;5061;49.068;12.058;2022-12-18T16:38:57;18.83;;;9.60;;
10041;SDS011;5061;49.068;12.058;2022-12-18T16:42:19;15.10;;;7.43;;
10041;SDS011;5061;49.068;12.058;2022-12-18T16:45:40;13.73;;;7.63;;
10041;SDS011;5061;49.068;12.058;2022-12-18T16:49:00;15.77;;;8.07;;
10041;SDS011;5061;49.068;12.058;2022-12-18T16:52:21;15.07;;;8.73;;
10041;SDS011;5061;49.068;12.058;2022-12-18T16:55:41;19.93;;;8.40;;
10041;SDS011;5061;49.068;12.058;2022-12-18T16:59:03;19.27;;;8.70;;
10041;SDS011;5061;49.068;12.058;2022-12-18T17:02:24;17.23;;;8.30;;
10041;SDS011;5061;49.068;12.058;2022-12-18T17:05:46;17.37;;;8.00;;
10041;SDS011;5061;49.068;12.058;2022-12-18T17:09:07;17.07;;;9.63;;
10041;SDS011;5061;49.068;12.058;2022-12-18T17:12:30;19.50;;;9.10;;
10041;SDS011;5061;49.068;12.058;2022-12-18T17:15:51;21.60;;;9.57;;
10041;SDS011;5061;49.068;12.058;2022-12-18T17:19:13;18.70;;;9.93;;
10041;SDS011;5061;49.068;12.058;2022-12-18T17:22:35;24.17;;;9.83;;
10041;SDS011;5061;49.068;12.058;2022-12-18T17:25:57;27.97;;;11.23;;
10041;SDS011;5061;49.068;12.058;2022-12-18T17:29:19;19.57;;;9.63;;
10041;SDS011;5061;49.068;12.058;2022-12-18T17:32:40;20.47;;;9.60;;
10041;SDS011;5061;49.068;12.058;2022-12-18T17:36:00;22.53;;;11.53;;
10041;SDS011;5061;49.068;12.058;2022-12-18T17:39:21;22.10;;;10.33;;
10041;SDS011;5061;49.068;12.058;2022-12-18T17:42:42;19.33;;;9.80;;
10041;SDS011;5061;49.068;12.058;2022-12-18T17:46:03;20.57;;;9.30;;
10041;SDS011;5061;49.068;12.058;2022-12-18T17:49:25;20.57;;;9.63;;
10041;SDS011;5061;49.068;12.058;2022-12-18T17:52:45;19.63;;;9.13;;
10041;SDS011;5061;49.068;12.058;2022-12-18T17:56:06;18.87;;;9.50;;
10041;SDS011;5061;49.068;12.058;2022-12-18T17:59:28;18.50;;;8.50;;
10041;SDS011;5061;49.068;12.058;2022-12-18T18:02:49;17.70;;;8.77;;
10041;SDS011;5061;49.068;12.058;2022-12-18T18:06:10;18.83;;;9.10;;
10041;SDS011;5061;49.068;12.058;2022-12-18T18:09:30;19.17;;;9.03;;
10041;SDS011;5061;49.068;12.058;2022-12-18T18:12:51;15.90;;;7.70;;
10041;SDS011;5061;49.068;12.058;2022-12-18T18:16:34;15.80;;;7.93;;
10041;SDS011;5061;49.068;12.058;2022-12-18T18:19:59;14.20;;;8.33;;
10041;SDS011;5061;49.068;12.058;2022-12-18T18:23:20;15.57;;;7.47;;
10041;SDS011;5061;49.068;12.058;2022-12-18T18:26:41;14.80;;;7.60;;
10041;SDS011;5061;49.068;12.058;2022-12-18T18:30:02;15.63;;;8.17;;
10041;SDS011;5061;49.068;12.058;2022-12-18T18:33:23;18.53;;;8.23;;
10041;SDS011;5061;49.068;12.058;2022-12-18T18:36:43;20.37;;;8.73;;
10041;SDS011;5061;49.068;12.058;2022-12-18T18:40:05;18.83;;;10.30;;
10041;SDS011;5061;49.068;12.058;2022-12-18T18:43:26;17.97;;;8.80;;
10041;SDS011;5061;49.068;12.058;2022-12-18T18:46:47;22.63;;;11.90;;
10041;SDS011;5061;49.068;12.058;2022-12-18T18:50:08;33.33;;;14.97;;
10041;SDS011;5061;49.068;12.058;2022-12-18T18:53:37;25.70;;;13.50;;
10041;SDS011;5061;49.068;12.058;2022-12-18T18:57:00;26.83;;;13.60;;
10041;SDS011;5061;49.068;12.058;2022-12-18T19:00:20;26.43;;;11.80;;
10041;SDS011;5061;49.068;12.058;2022-12-18T19:03:41;22.60;;;10.03;;
10041;SDS011;5061;49.068;12.058;2022-12-18T19:07:02;19.93;;;9.93;;
10041;SDS011;5061;49.068;12.058;2022-12-18T19:10:26;23.90;;;11.60;;
10041;SDS011;5061;49.068;12.058;2022-12-18T19:13:47;23.33;;;9.60;;
10041;SDS011;5061;49.068;12.058;2022-12-18T19:17:07;16.03;;;8.70;;
10041;SDS011;5061;49.068;12.058;2022-12-18T19:20:28;19.30;;;9.77;;
10041;SDS011;5061;49.068;12.058;2022-12-18T19:23:49;27.90;;;9.80;;
10041;SDS011;5061;49.068;12.058;2022-12-18T19:27:09;22.10;;;10.30;;
10041;SDS011;5061;49.068;12.058;2022-12-18T19:30:31;27.53;;;11.63;;
10041;SDS011;5061;49.068;12.058;2022-12-18T19:33:51;27.37;;;11.57;;
10041;SDS011;5061;49.068;12.058;2022-12-18T19:37:12;28.10;;;12.53;;
10041;SDS011;5061;49.068;12.058;2022-12-18T19:40:33;24.87;;;11.90;;
10041;SDS011;5061;49.068;12.058;2022-12-18T19:43:54;26.93;;;12.10;;
10041;SDS011;5061;49.068;12.058;2022-12-18T19:47:15;29.50;;;14.83;;
10041;SDS011;5061;49.068;12.058;2022-12-18T19:50:39;33.30;;;14.20;;
10041;SDS011;5061;49.068;12.058;2022-12-18T19:54:00;32.27;;;14.37;;
10041;SDS011;5061;49.068;12.058;2022-12-18T19:57:21;39.60;;;16.17;;
10041;SDS011;5061;49.068;12.058;2022-12-18T20:00:42;33.17;;;14.03;;
10041;SDS011;5061;49.068;12.058;2022-12-18T20:04:02;37.80;;;16.50;;
10041;SDS011;5061;49.068;12.058;2022-12-18T20:07:23;37.37;;;15.17;;
10041;SDS011;5061;49.068;12.058;2022-12-18T20:10:44;39.93;;;17.30;;
10041;SDS011;5061;49.068;12.058;2022-12-18T20:14:08;33.20;;;15.43;;
10041;SDS011;5061;49.068;12.058;2022-12-18T20:17:30;40.93;;;18.63;;
10041;SDS011;5061;49.068;12.058;2022-12-18T20:20:50;45.50;;;18.30;;
10041;SDS011;5061;49.068;12.058;2022-12-18T20:24:11;39.03;;;16.47;;
10041;SDS011;5061;49.068;12.058;2022-12-18T20:27:32;30.50;;;13.90;;
10041;SDS011;5061;49.068;12.058;2022-12-18T20:31:03;35.07;;;14.63;;
10041;SDS011;5061;49.068;12.058;2022-12-18T20:34:27;42.27;;;17.93;;
10041;SDS011;5061;49.068;12.058;2022-12-18T20:37:47;35.10;;;15.93;;
10041;SDS011;5061;49.068;12.058;2022-12-18T20:41:08;37.17;;;16.27;;
10041;SDS011;5061;49.068;12.058;2022-12-18T20:44:31;38.37;;;16.10;;
10041;SDS011;5061;49.068;12.058;2022-12-18T20:47:53;40.70;;;16.73;;
10041;SDS011;5061;49.068;12.058;2022-12-18T20:51:15;40.03;;;17.00;;
10041;SDS011;5061;49.068;12.058;2022-12-18T20:54:37;43.30;;;17.50;;
10041;SDS011;5061;49.068;12.058;2022-12-18T20:57:58;37.20;;;16.13;;
10041;SDS011;5061;49.068;12.058;2022-12-18T21:01:21;35.07;;;15.57;;
10041;SDS011;5061;49.068;12.058;2022-12-18T21:04:42;33.50;;;14.97;;
10041;SDS011;5061;49.068;12.058;2022-12-18T21:08:03;38.37;;;17.37;;
10041;SDS011;5061;49.068;12.058;2022-12-18T21:11:25;33.47;;;15.17;;
10041;SDS011;5061;49.068;12.058;2022-12-18T21:15:07;40.97;;;16.90;;
10041;SDS011;5061;49.068;12.058;2022-12-18T21:18:28;40.37;;;14.50;;
10041;SDS011;5061;49.068;12.058;2022-12-18T21:21:49;41.20;;;16.13;;
10041;SDS011;5061;49.068;12.058;2022-12-18T21:25:14;38.60;;;17.30;;
10041;SDS011;5061;49.068;12.058;2022-12-18T21:28:35;40.43;;;17.87;;
10041;SDS011;5061;49.068;12.058;2022-12-18T21:31:55;36.37;;;15.60;;
10041;SDS011;5061;49.068;12.058;2022-12-18T21:35:16;44.50;;;20.20;;
10041;SDS011;5061;49.068;12.058;2022-12-18T21:38:37;42.77;;;17.10;;
10041;SDS011;5061;49.068;12.058;2022-12-18T21:41:57;40.67;;;16.80;;
10041;SDS011;5061;49.068;12.058;2022-12-18T21:45:37;38.33;;;17.17;;
10041;SDS011;5061;49.068;12.058;2022-12-18T21:48:57;38.50;;;17.37;;
10041;SDS011;5061;49.068;12.058;2022-12-18T21:52:18;42.67;;;16.87;;
10041;SDS011;5061;49.068;12.058;2022-12-18T21:55:40;45.00;;;19.00;;
10041;SDS011;5061;49.068;12.058;2022-12-18T21:59:01;41.07;;;18.10;;